Ihlen, Minnesota
Current Conditions -  °F | °C
As of 1:54 PM on Saturday 25 Oct 2014 (Local Time) from KPQN Reporting Station
Clear Clear  
Wind Chill: 64°   Ceiling: Unl
Heat Index: 64°   Visibility: 10mi
Dew Point: 27°   Wind: 9mph
Humidity: 24%   Direction: 10°N
Pressure: 30.12"   Gusts: NA
Location:  43.91°N, 96.37°W
Report Text: KPQN 251854Z AUTO 01008KT 10SM CLR 18/M03 A3012 RMK AO2
Loading
Personal Weather Stations






























Interactive Weather Map
Tropical Storm Tracking
New forecast layout! Learn more

10-Day Weather Forecast

Advertisements
Track Severe Weather on mobile